Time;durP1;ratioP1;P1;durP2;ratioP2;P2;SDS_P1;SDS_P2;PMS_P1;PMS_P2;Temp;Humidity;BMP_temperature;BMP_pressure;BME280_temperature;BME280_humidity;BME280_pressure;Samples;Min_cycle;Max_cycle;Signal;HPM_P1;HPM_P2
2022/11/12 00:00:43;;;;;;;28.60;17.10;;;;;;;6.44;93.67;99937.71;103036;1312;22655;-72
2022/11/12 00:03:29;;;;;;;33.50;19.20;;;;;;;6.42;93.39;99945.38;102963;1313;137927;-72
2022/11/12 00:06:15;;;;;;;33.20;19.60;;;;;;;6.40;93.42;99949.08;103055;1310;22737;-72
2022/11/12 00:09:00;;;;;;;32.30;19.10;;;;;;;6.36;93.17;99942.28;102973;1295;138084;-72
2022/11/12 00:11:46;;;;;;;31.20;17.60;;;;;;;6.32;93.20;99935.01;103019;1310;24064;-72
2022/11/12 00:14:32;;;;;;;28.30;16.90;;;;;;;6.28;93.10;99933.68;102982;1305;22479;-73
2022/11/12 00:17:17;;;;;;;27.40;17.30;;;;;;;6.27;93.34;99934.36;102892;1312;24387;-72
2022/11/12 00:20:03;;;;;;;31.00;18.50;;;;;;;6.25;93.49;99934.35;102998;1313;25493;-72
2022/11/12 00:22:49;;;;;;;28.50;16.90;;;;;;;6.25;93.57;99933.22;102952;1313;137933;-72
2022/11/12 00:25:37;;;;;;;29.20;17.10;;;;;;;6.25;93.55;99934.72;103053;1310;22508;-72
2022/11/12 00:28:23;;;;;;;31.60;17.80;;;;;;;6.25;93.66;99932.55;102937;1310;137833;-73
2022/11/12 00:31:10;;;;;;;31.70;17.90;;;;;;;6.25;93.30;99933.86;103100;1309;23342;-71
2022/11/12 00:34:00;;;;;;;27.20;16.10;;;;;;;6.24;93.52;99929.28;103061;1310;137701;-72
2022/11/12 00:36:46;;;;;;;29.20;17.20;;;;;;;6.23;93.56;99930.43;103061;1302;25369;-72
2022/11/12 00:39:32;;;;;;;29.00;16.90;;;;;;;6.22;93.62;99929.66;102930;1313;137925;-72
2022/11/12 00:42:20;;;;;;;33.00;19.10;;;;;;;6.23;93.15;99929.09;102968;1313;22857;-72
2022/11/12 00:45:09;;;;;;;29.40;18.40;;;;;;;6.19;93.23;99927.02;103010;1298;138628;-72
2022/11/12 00:47:58;;;;;;;30.20;18.10;;;;;;;6.13;93.05;99927.48;103015;1310;24521;-72
2022/11/12 00:50:44;;;;;;;34.10;19.50;;;;;;;6.08;93.06;99928.81;103060;1302;22491;-72
2022/11/12 00:53:30;;;;;;;30.00;17.80;;;;;;;6.02;93.06;99931.96;103105;1310;23047;-72
2022/11/12 00:56:16;;;;;;;34.20;19.40;;;;;;;5.96;92.97;99930.17;103017;1310;22467;-72
2022/11/12 00:59:01;;;;;;;31.50;19.40;;;;;;;5.91;93.10;99938.83;102994;1312;137959;-72
2022/11/12 01:01:47;;;;;;;34.50;21.00;;;;;;;5.86;93.09;99936.92;103082;1304;25389;-72
2022/11/12 01:04:32;;;;;;;31.10;18.80;;;;;;;5.80;93.24;99942.68;103049;1313;137791;-72
2022/11/12 01:07:22;;;;;;;35.30;20.80;;;;;;;5.73;92.85;99944.20;102959;1310;22586;-72
2022/11/12 01:10:09;;;;;;;34.40;21.00;;;;;;;5.65;93.18;99947.55;102822;1306;137979;-72
2022/11/12 01:12:56;;;;;;;41.90;20.70;;;;;;;5.60;93.24;99944.38;103059;1304;25441;-72
2022/11/12 01:15:42;;;;;;;36.60;20.40;;;;;;;5.55;93.44;99945.40;102895;1310;137881;-72
2022/11/12 01:18:27;;;;;;;35.20;21.50;;;;;;;5.49;93.65;99942.77;103062;1312;22634;-72
2022/11/12 01:21:13;;;;;;;35.30;21.30;;;;;;;5.45;94.00;99940.11;103097;1288;137923;-71
2022/11/12 01:24:02;;;;;;;31.90;18.30;;;;;;;5.41;94.02;99932.36;103096;1304;22626;-72
2022/11/12 01:26:47;;;;;;;36.00;20.70;;;;;;;5.35;93.93;99932.52;102998;1310;22464;-71
2022/11/12 01:29:33;;;;;;;36.60;20.70;;;;;;;5.29;94.13;99939.39;103100;1313;24493;-72
2022/11/12 01:32:21;;;;;;;38.10;21.70;;;;;;;5.24;94.58;99941.43;103015;1313;22599;-72
2022/11/12 01:35:07;;;;;;;34.30;20.80;;;;;;;5.21;94.85;99942.36;102962;1303;137742;-72
2022/11/12 01:37:52;;;;;;;41.30;24.50;;;;;;;5.19;95.08;99947.80;103171;1297;22486;-72
2022/11/12 01:40:38;;;;;;;37.80;23.70;;;;;;;5.16;95.12;99943.45;102928;1310;137758;-72
2022/11/12 01:43:24;;;;;;;39.00;22.70;;;;;;;5.13;95.29;99940.66;102959;1310;24188;-72
2022/11/12 01:46:18;;;;;;;40.00;23.00;;;;;;;5.13;95.28;99943.46;102884;1310;137707;-72
2022/11/12 01:49:08;;;;;;;39.50;22.80;;;;;;;5.10;95.50;99941.27;103090;1313;25362;-72
2022/11/12 01:52:08;;;;;;;36.10;20.40;;;;;;;5.07;95.47;99942.59;102659;1307;138008;-72
2022/11/12 01:55:02;;;;;;;38.50;21.40;;;;;;;5.05;95.62;99943.20;103119;1310;25304;-72
2022/11/12 01:57:53;;;;;;;34.70;22.20;;;;;;;5.02;95.61;99942.00;102977;1307;138055;-72
2022/11/12 02:00:39;;;;;;;36.40;21.90;;;;;;;5.00;95.84;99943.45;103078;1312;24358;-71
2022/11/12 02:03:25;;;;;;;38.70;22.20;;;;;;;4.96;96.07;99941.34;102929;1310;138583;-73
2022/11/12 02:06:14;;;;;;;39.70;22.30;;;;;;;4.94;96.14;99940.13;103089;1299;25373;-71
2022/11/12 02:09:03;;;;;;;37.90;22.30;;;;;;;4.92;96.05;99941.24;103037;1309;24372;-72
2022/11/12 02:11:49;;;;;;;39.30;21.00;;;;;;;4.89;96.20;99938.02;103033;1311;24271;-72
2022/11/12 02:14:34;;;;;;;37.70;22.20;;;;;;;4.86;96.25;99945.34;103026;1311;25737;-72
2022/11/12 02:17:20;;;;;;;32.30;20.00;;;;;;;4.84;96.26;99943.05;103118;1304;137796;-72
2022/11/12 02:20:11;;;;;;;40.80;22.70;;;;;;;4.83;96.19;99941.42;103136;1298;24488;-72
2022/11/12 02:22:57;;;;;;;34.00;19.80;;;;;;;4.80;96.30;99941.58;102866;1310;137775;-72
2022/11/12 02:25:43;;;;;;;39.00;22.10;;;;;;;4.79;96.57;99939.92;102970;1304;22542;-72
2022/11/12 02:28:31;;;;;;;38.10;22.60;;;;;;;4.79;96.55;99945.63;102850;1305;137804;-74
2022/11/12 02:31:17;;;;;;;37.00;21.20;;;;;;;4.78;96.57;99945.86;102953;1312;24446;-72
2022/11/12 02:34:03;;;;;;;43.50;23.70;;;;;;;4.78;96.59;99944.23;102759;1313;137795;-72
2022/11/12 02:36:49;;;;;;;39.00;21.20;;;;;;;4.78;96.44;99942.34;102965;1295;22489;-73
2022/11/12 02:39:34;;;;;;;32.60;18.00;;;;;;;4.79;96.55;99943.87;102835;1311;138251;-72
2022/11/12 02:42:20;;;;;;;40.70;20.70;;;;;;;4.78;96.34;99941.20;103033;1310;25470;-71
2022/11/12 02:45:06;;;;;;;34.30;18.80;;;;;;;4.78;96.24;99935.70;102938;1310;22593;-71
2022/11/12 02:47:51;;;;;;;37.30;19.20;;;;;;;4.77;96.14;99933.27;103068;1310;25423;-71
2022/11/12 02:50:37;;;;;;;33.60;18.40;;;;;;;4.75;96.20;99932.70;103105;1312;22676;-71
2022/11/12 02:53:27;;;;;;;32.40;18.30;;;;;;;4.74;96.17;99932.48;103033;1304;137903;-71
2022/11/12 02:56:15;;;;;;;33.90;17.70;;;;;;;4.75;96.14;99933.81;103060;1313;23609;-71
2022/11/12 02:59:00;;;;;;;30.70;17.90;;;;;;;4.76;96.17;99936.95;102976;1310;138221;-72
2022/11/12 03:01:46;;;;;;;38.10;20.80;;;;;;;4.76;96.33;99933.52;103210;1297;22719;-71
2022/11/12 03:04:32;;;;;;;33.50;18.10;;;;;;;4.76;96.22;99934.39;102907;1310;138903;-72
2022/11/12 03:07:17;;;;;;;35.30;21.00;;;;;;;4.76;96.41;99931.52;103014;1310;22573;-72
2022/11/12 03:10:04;;;;;;;35.60;19.80;;;;;;;4.75;96.29;99930.35;103045;1303;140192;-71
2022/11/12 03:12:51;;;;;;;35.40;20.60;;;;;;;4.75;96.46;99930.17;103172;1289;22993;-72
2022/11/12 03:15:36;;;;;;;33.70;19.90;;;;;;;4.76;96.40;99933.92;103132;1310;138150;-73
2022/11/12 03:18:22;;;;;;;38.40;20.60;;;;;;;4.74;96.32;99933.48;103038;1310;22723;-71
2022/11/12 03:21:08;;;;;;;32.50;18.80;;;;;;;4.74;96.47;99934.08;103309;1312;23394;-70
2022/11/12 03:23:54;;;;;;;34.20;19.00;;;;;;;4.73;96.31;99933.48;103017;1312;23870;-73
2022/11/12 03:26:39;;;;;;;34.60;18.30;;;;;;;4.71;96.28;99934.56;103094;1312;22539;-72
2022/11/12 03:29:25;;;;;;;34.20;18.40;;;;;;;4.69;96.13;99931.42;102915;1310;138087;-72
2022/11/12 03:32:11;;;;;;;35.60;20.40;;;;;;;4.67;96.21;99932.11;103052;1311;25265;-72
2022/11/12 03:34:56;;;;;;;33.20;19.90;;;;;;;4.66;96.20;99930.31;102891;1310;137877;-72
2022/11/12 03:37:42;;;;;;;35.30;20.10;;;;;;;4.65;96.42;99932.44;102942;1310;22472;-73
2022/11/12 03:40:29;;;;;;;37.90;20.80;;;;;;;4.64;96.18;99935.77;102942;1287;137956;-73
2022/11/12 03:43:14;;;;;;;34.80;20.40;;;;;;;4.63;96.20;99937.27;103092;1301;23084;-72
2022/11/12 03:46:00;;;;;;;36.60;21.40;;;;;;;4.62;96.19;99938.13;102946;1305;138165;-72
2022/11/12 03:48:46;;;;;;;33.10;20.60;;;;;;;4.61;96.22;99936.80;103020;1313;22503;-70
2022/11/12 03:51:34;;;;;;;32.50;18.10;;;;;;;4.59;96.03;99933.22;102844;1310;138512;-70
2022/11/12 03:54:20;;;;;;;34.40;18.40;;;;;;;4.58;96.22;99935.17;102959;1310;25415;-71
2022/11/12 03:57:06;;;;;;;32.60;18.90;;;;;;;4.57;96.32;99934.55;103043;1310;22690;-71
2022/11/12 03:59:51;;;;;;;35.50;21.00;;;;;;;4.55;96.33;99928.98;103127;1295;22515;-71
2022/11/12 04:02:37;;;;;;;25.90;17.60;;;;;;;4.55;96.62;99929.05;102989;1313;24468;-71
2022/11/12 04:08:35;;;;;;;33.10;16.80;;;;;;;4.52;96.57;99928.55;103006;1312;22479;-70
2022/11/12 04:11:21;;;;;;;34.10;19.40;;;;;;;4.50;96.56;99934.02;102915;1310;137881;-70
2022/11/12 04:14:07;;;;;;;31.30;18.70;;;;;;;4.49;96.91;99933.77;102981;1310;25600;-71
2022/11/12 04:23:02;;;;;;;35.40;19.10;;;;;;;4.47;96.59;99930.98;102961;1313;138012;-70
2022/11/12 04:31:58;;;;;;;33.70;20.00;;;;;;;4.44;96.64;99933.31;103027;1310;22461;-71
2022/11/12 04:34:44;;;;;;;31.80;18.60;;;;;;;4.42;96.45;99931.98;103000;1304;137942;-73
2022/11/12 04:37:43;;;;;;;32.40;17.30;;;;;;;4.41;96.46;99926.60;103221;1313;25472;-70
2022/11/12 04:46:39;;;;;;;34.30;18.80;;;;;;;4.34;96.24;99926.09;102902;1309;137958;-72
2022/11/12 04:49:24;;;;;;;35.50;19.30;;;;;;;4.32;96.19;99926.11;102877;1310;22482;-73
2022/11/12 04:52:10;;;;;;;35.70;19.10;;;;;;;4.30;96.28;99929.52;102886;1295;138158;-72
2022/11/12 04:54:57;;;;;;;36.50;20.40;;;;;;;4.29;96.26;99928.41;103017;1297;25349;-71
2022/11/12 04:57:42;;;;;;;34.50;18.30;;;;;;;4.28;96.27;99932.48;102991;1287;138569;-72
2022/11/12 05:00:28;;;;;;;33.80;20.70;;;;;;;4.26;96.04;99932.19;103082;1295;25694;-71
2022/11/12 05:03:14;;;;;;;32.50;17.50;;;;;;;4.23;96.02;99934.44;103078;1306;22512;-72
2022/11/12 05:06:50;;;;;;;36.00;19.70;;;;;;;4.19;95.90;99928.77;103154;1313;25545;-71
2022/11/12 05:09:13;;;;;;;37.90;19.10;;;;;;;4.16;96.00;99928.40;103115;1282;23001;-71
2022/11/12 05:12:00;;;;;;;38.20;20.70;;;;;;;4.14;96.15;99930.83;103067;1311;24324;-72
2022/11/12 05:14:47;;;;;;;36.80;19.00;;;;;;;4.12;96.23;99929.70;103037;1302;22517;-72
2022/11/12 05:17:36;;;;;;;29.20;16.70;;;;;;;4.11;96.37;99928.40;102956;1313;137952;-71
2022/11/12 05:20:21;;;;;;;30.20;16.00;;;;;;;4.10;96.30;99930.38;103114;1289;22464;-71
2022/11/12 05:23:07;;;;;;;35.90;19.00;;;;;;;4.07;96.24;99930.62;103053;1310;138064;-71
2022/11/12 05:25:52;;;;;;;34.30;20.30;;;;;;;4.06;96.62;99930.98;102970;1308;22474;-71
2022/11/12 05:28:38;;;;;;;32.10;18.00;;;;;;;4.05;96.56;99926.57;102906;1310;137964;-71
2022/11/12 05:31:24;;;;;;;32.80;19.50;;;;;;;4.03;96.65;99926.20;103217;1310;25281;-71
2022/11/12 05:34:10;;;;;;;36.40;19.70;;;;;;;4.03;96.89;99930.08;103033;1314;138324;-71
2022/11/12 05:36:56;;;;;;;39.30;21.10;;;;;;;4.02;96.87;99934.58;103129;1311;22890;-71
2022/11/12 05:39:42;;;;;;;33.90;16.50;;;;;;;4.02;96.76;99935.09;103063;1313;137725;-71
2022/11/12 05:42:28;;;;;;;29.10;17.30;;;;;;;4.00;96.69;99931.18;103131;1310;22478;-71
2022/11/12 05:45:13;;;;;;;38.90;19.60;;;;;;;3.98;96.59;99931.92;103043;1310;24327;-71
2022/11/12 05:47:58;;;;;;;39.90;19.10;;;;;;;3.97;96.78;99936.54;102945;1294;138361;-71
2022/11/12 05:50:48;;;;;;;30.90;17.20;;;;;;;3.97;96.66;99936.93;103017;1312;22483;-71
2022/11/12 05:53:35;;;;;;;32.10;16.60;;;;;;;3.95;96.82;99933.50;103092;1313;137956;-71
2022/11/12 05:56:21;;;;;;;31.90;19.30;;;;;;;3.94;96.56;99938.31;103009;1310;25350;-71
2022/11/12 05:59:08;;;;;;;38.80;19.00;;;;;;;3.93;96.79;99944.54;102992;1304;138017;-71
2022/11/12 06:01:54;;;;;;;33.30;19.00;;;;;;;3.92;96.76;99946.77;102847;1309;22471;-71
2022/11/12 06:04:40;;;;;;;40.40;20.10;;;;;;;3.93;96.93;99945.55;102804;1310;138100;-72
2022/11/12 06:07:26;;;;;;;36.80;20.60;;;;;;;3.95;96.95;99945.63;103063;1312;25274;-71
2022/11/12 06:10:11;;;;;;;37.00;19.40;;;;;;;3.95;96.80;99951.52;102926;1312;138575;-71
2022/11/12 06:28:15;;;;;;;36.60;18.70;;;;;;;4.15;96.41;99960.15;99937;1340;544876;-72
2022/11/12 06:31:01;;;;;;;40.10;19.50;;;;;;;4.17;96.19;99960.06;101563;1326;22544;-71
2022/11/12 06:33:47;;;;;;;33.00;20.00;;;;;;;4.21;96.22;99968.52;101424;1326;137246;-72
2022/11/12 06:36:34;;;;;;;34.30;19.90;;;;;;;4.25;96.34;99973.23;101687;1326;22606;-72
2022/11/12 06:39:19;;;;;;;38.40;21.50;;;;;;;4.28;96.40;99974.14;101536;1326;22620;-71
2022/11/12 06:42:05;;;;;;;39.30;21.30;;;;;;;4.33;96.62;99974.94;101258;1319;1150768;-71
2022/11/12 06:44:51;;;;;;;35.10;20.20;;;;;;;4.37;96.55;99975.67;102480;1315;24418;-71
2022/11/12 06:47:36;;;;;;;36.60;21.50;;;;;;;4.41;96.32;99976.77;102232;1304;137264;-72
2022/11/12 06:50:22;;;;;;;39.10;21.40;;;;;;;4.45;96.23;99975.12;102332;1316;22609;-71
2022/11/12 06:53:08;;;;;;;40.30;19.70;;;;;;;4.47;96.18;99975.93;102408;1319;137729;-71
2022/11/12 06:56:01;;;;;;;37.20;21.80;;;;;;;4.50;96.09;99979.19;102377;1319;22498;-73
2022/11/12 06:58:46;;;;;;;40.60;23.10;;;;;;;4.52;96.16;99980.91;102138;1319;137731;-72
2022/11/12 07:01:32;;;;;;;39.80;23.50;;;;;;;4.54;95.99;99979.93;102466;1318;24275;-71
2022/11/12 07:04:18;;;;;;;48.90;23.50;;;;;;;4.56;95.96;99982.63;102201;1299;138207;-71
2022/11/12 07:07:04;;;;;;;35.60;22.60;;;;;;;4.60;96.02;99982.44;102344;1297;25409;-73
2022/11/12 07:09:49;;;;;;;40.10;23.50;;;;;;;4.63;95.86;99981.77;102193;1319;138753;-71
2022/11/12 07:12:35;;;;;;;41.30;22.40;;;;;;;4.66;95.81;99985.34;102928;1291;22627;-71
2022/11/12 07:15:21;;;;;;;38.20;23.50;;;;;;;4.69;95.89;99990.89;102814;1313;22572;-71
2022/11/12 07:18:06;;;;;;;50.00;28.50;;;;;;;4.73;95.85;99994.94;102633;1313;137262;-71
2022/11/12 07:21:05;;;;;;;76.10;35.40;;;;;;;4.78;95.83;99997.00;102786;1314;35569;-71
2022/11/12 07:23:51;;;;;;;44.00;25.90;;;;;;;4.84;96.08;99997.20;102575;1306;137954;-72
2022/11/12 07:26:36;;;;;;;44.20;24.90;;;;;;;4.90;96.26;99999.93;102664;1313;25364;-71
2022/11/12 07:29:22;;;;;;;42.70;23.90;;;;;;;4.95;96.27;100001.21;102574;1294;137520;-73
2022/11/12 07:32:07;;;;;;;41.70;25.40;;;;;;;5.02;96.21;99999.78;102542;1315;22611;-71
2022/11/12 07:34:53;;;;;;;44.50;24.20;;;;;;;5.08;96.41;99992.61;102518;1312;137667;-71
2022/11/12 07:37:38;;;;;;;43.70;26.40;;;;;;;5.15;96.25;99994.29;102537;1307;24283;-71
2022/11/12 07:40:25;;;;;;;45.20;26.00;;;;;;;5.22;96.14;99993.39;102786;1305;137791;-72
2022/11/12 07:43:11;;;;;;;40.00;23.50;;;;;;;5.27;96.22;99987.17;102778;1314;24053;-71
2022/11/12 07:45:58;;;;;;;41.80;25.20;;;;;;;5.32;95.96;99982.50;102567;1316;137663;-71
2022/11/12 07:48:45;;;;;;;44.10;24.20;;;;;;;5.37;95.83;99989.54;102633;1308;23091;-72
2022/11/12 07:51:30;;;;;;;46.60;25.40;;;;;;;5.40;95.81;99989.16;102360;1315;23885;-73
2022/11/12 07:54:16;;;;;;;45.60;25.20;;;;;;;5.43;95.66;99990.98;102480;1314;22539;-71
2022/11/12 07:57:01;;;;;;;45.90;25.80;;;;;;;5.46;95.65;99983.10;102393;1302;24930;-72
2022/11/12 07:59:47;;;;;;;46.90;26.20;;;;;;;5.47;95.36;99984.38;102597;1299;137519;-72
2022/11/12 08:02:33;;;;;;;41.20;24.90;;;;;;;5.50;95.38;99985.48;102501;1299;22556;-76
2022/11/12 08:05:18;;;;;;;41.60;25.70;;;;;;;5.53;95.29;99982.88;102387;1314;137571;-71
2022/11/12 08:08:04;;;;;;;44.90;25.30;;;;;;;5.57;95.28;99984.75;102682;1314;22526;-73
2022/11/12 08:10:54;;;;;;;43.90;25.70;;;;;;;5.61;95.20;99988.01;102266;1315;137453;-72
2022/11/12 08:13:40;;;;;;;46.10;26.70;;;;;;;5.65;95.24;99985.77;102428;1309;22625;-72
2022/11/12 08:16:26;;;;;;;40.30;25.50;;;;;;;5.70;95.25;99985.94;102305;1315;137530;-71
2022/11/12 08:19:12;;;;;;;47.50;26.90;;;;;;;5.77;95.21;99993.82;102387;1315;25282;-71
2022/11/12 08:21:57;;;;;;;43.10;25.80;;;;;;;5.84;95.04;99992.30;102512;1316;137589;-72
2022/11/12 08:24:43;;;;;;;48.20;27.40;;;;;;;5.91;95.09;99998.34;102648;1306;24309;-74
2022/11/12 08:27:29;;;;;;;42.90;25.80;;;;;;;6.00;95.02;99994.27;102674;1291;25138;-73
2022/11/12 08:30:15;;;;;;;51.60;28.50;;;;;;;6.09;95.20;99996.83;102665;1316;22467;-74
2022/11/12 08:33:04;;;;;;;44.80;26.60;;;;;;;6.21;94.92;99996.18;102612;1316;22512;-72
2022/11/12 08:35:49;;;;;;;44.40;26.20;;;;;;;6.33;95.04;99999.88;102450;1314;137942;-72
2022/11/12 08:38:35;;;;;;;47.80;27.40;;;;;;;6.41;94.66;100003.19;102425;1316;22483;-71
2022/11/12 08:41:21;;;;;;;49.80;27.10;;;;;;;6.53;94.87;100001.14;102946;1312;137747;-71
2022/11/12 08:44:07;;;;;;;46.60;26.50;;;;;;;6.71;94.76;100006.05;103143;1313;25988;-71
2022/11/12 08:46:52;;;;;;;49.80;27.40;;;;;;;6.89;94.37;100004.60;102917;1298;137609;-73
2022/11/12 08:49:39;;;;;;;39.90;22.50;;;;;;;7.04;94.30;100009.64;103184;1291;23493;-72
2022/11/12 08:52:26;;;;;;;42.90;25.30;;;;;;;7.18;93.86;100011.08;102892;1308;137762;-71
2022/11/12 08:55:12;;;;;;;41.10;25.50;;;;;;;7.35;93.47;100007.81;102963;1313;25398;-72
2022/11/12 08:58:01;;;;;;;45.00;25.90;;;;;;;7.51;93.12;100008.32;103012;1313;137821;-71
2022/11/12 09:00:48;;;;;;;41.50;23.20;;;;;;;7.64;92.22;100006.42;102892;1313;24213;-73
2022/11/12 09:03:34;;;;;;;46.30;24.50;;;;;;;7.75;91.38;100005.76;102966;1294;26658;-72
2022/11/12 09:06:20;;;;;;;40.80;22.60;;;;;;;7.85;90.78;100006.55;102978;1299;22483;-74
2022/11/12 09:09:05;;;;;;;42.40;23.40;;;;;;;7.93;90.20;100003.36;102909;1294;23887;-73
2022/11/12 09:11:52;;;;;;;40.10;23.60;;;;;;;8.05;90.16;100008.80;102736;1297;137752;-73
2022/11/12 09:14:38;;;;;;;47.20;25.40;;;;;;;8.19;89.67;100007.34;104039;1307;24246;-73
2022/11/12 09:17:25;;;;;;;39.00;23.30;;;;;;;8.34;89.18;100009.21;102915;1313;138099;-74
2022/11/12 09:20:10;;;;;;;40.40;21.90;;;;;;;8.51;88.35;100000.95;103227;1298;22525;-72
2022/11/12 09:23:05;;;;;;;36.60;22.30;;;;;;;8.66;87.84;99997.91;103579;1313;137995;-73
2022/11/12 09:25:50;;;;;;;40.80;22.90;;;;;;;8.80;86.84;100004.42;102997;1308;22484;-72
2022/11/12 09:28:36;;;;;;;39.20;21.10;;;;;;;8.90;86.04;100000.60;102904;1313;138065;-73
2022/11/12 09:31:24;;;;;;;33.30;19.80;;;;;;;9.02;85.85;100004.09;103039;1312;22603;-73
2022/11/12 09:34:10;;;;;;;35.20;20.70;;;;;;;9.11;84.49;100003.34;103130;1312;138988;-72
2022/11/12 09:36:55;;;;;;;33.80;20.40;;;;;;;9.15;84.42;99998.49;103093;1312;25365;-73
2022/11/12 09:39:41;;;;;;;37.40;20.70;;;;;;;9.19;84.55;99993.63;102945;1295;22531;-73
2022/11/12 09:42:29;;;;;;;33.20;18.30;;;;;;;9.27;84.46;99996.33;103020;1299;22675;-73
2022/11/12 09:45:29;;;;;;;34.60;18.60;;;;;;;9.37;84.17;99990.78;103127;1304;22485;-75
2022/11/12 09:48:24;;;;;;;33.60;18.20;;;;;;;9.48;84.09;99992.23;102817;1312;139077;-75
2022/11/12 09:51:20;;;;;;;31.60;17.70;;;;;;;9.59;83.54;99992.84;102909;1313;22484;-74
2022/11/12 09:54:20;;;;;;;25.90;14.50;;;;;;;9.69;82.97;99988.92;102755;1312;137881;-74
2022/11/12 09:57:10;;;;;;;21.10;12.90;;;;;;;9.80;81.91;99988.42;102823;1312;25283;-77
2022/11/12 09:59:57;;;;;;;23.50;12.50;;;;;;;9.90;81.53;99993.46;102749;1312;137839;-72
2022/11/12 10:03:08;;;;;;;20.80;13.40;;;;;;;10.00;80.50;99994.09;102776;1307;25455;-75
2022/11/12 10:05:58;;;;;;;23.50;13.50;;;;;;;10.08;79.95;99990.48;102834;1313;138132;-75
2022/11/12 10:08:52;;;;;;;27.50;15.40;;;;;;;10.16;79.33;99992.88;102846;1304;22474;-74
2022/11/12 10:18:46;;;;;;;26.30;15.80;;;;;;;10.42;79.13;99985.27;102589;1312;138424;-73
2022/11/12 10:21:38;;;;;;;32.00;17.00;;;;;;;10.53;78.26;99987.83;102721;1312;22477;-73
2022/11/12 10:24:32;;;;;;;31.00;16.90;;;;;;;10.63;78.75;99990.30;102802;1311;137835;-74
2022/11/12 10:27:21;;;;;;;29.60;16.80;;;;;;;10.72;78.50;99980.38;102965;1304;22716;-74
2022/11/12 10:30:18;;;;;;;28.00;16.30;;;;;;;10.80;78.59;99977.23;102805;1313;137898;-73
2022/11/12 10:33:04;;;;;;;27.40;16.00;;;;;;;10.90;78.12;99977.19;103090;1312;24381;-73
2022/11/12 10:35:52;;;;;;;26.30;13.60;;;;;;;10.98;77.98;99975.94;102855;1313;137927;-73
2022/11/12 10:38:42;;;;;;;24.10;13.10;;;;;;;11.06;77.52;99975.52;103092;1311;24080;-72
2022/11/12 10:41:31;;;;;;;20.20;11.40;;;;;;;11.14;76.91;99977.14;103121;1300;137934;-72
2022/11/12 10:44:25;;;;;;;22.80;13.10;;;;;;;11.22;76.85;99975.90;103374;1298;25397;-73
2022/11/12 10:47:31;;;;;;;20.90;12.60;;;;;;;11.31;76.61;99967.72;102810;1312;137947;-74
2022/11/12 10:50:39;;;;;;;22.10;12.70;;;;;;;11.39;75.97;99965.57;102900;1288;22557;-74
2022/11/12 10:53:32;;;;;;;23.10;12.30;;;;;;;11.46;75.75;99960.34;102877;1296;137895;-74
2022/11/12 10:56:31;;;;;;;23.00;12.30;;;;;;;11.56;74.98;99957.13;102952;1312;22597;-73
2022/11/12 10:59:19;;;;;;;15.70;10.70;;;;;;;11.65;74.87;99956.35;103240;1293;137968;-73
2022/11/12 11:02:16;;;;;;;17.40;11.50;;;;;;;11.70;74.35;99955.66;102921;1313;24263;-76
2022/11/12 11:05:28;;;;;;;18.20;10.70;;;;;;;11.74;74.16;99949.89;103445;1312;137893;-74
2022/11/12 11:08:39;;;;;;;19.80;11.30;;;;;;;11.80;74.21;99944.70;103278;1313;22474;-73
2022/11/12 11:11:29;;;;;;;20.00;10.60;;;;;;;11.88;74.10;99945.09;103322;1291;139958;-75
2022/11/12 11:14:21;;;;;;;20.10;11.30;;;;;;;11.96;74.10;99949.58;103049;1293;23352;-74
2022/11/12 11:17:18;;;;;;;19.10;10.30;;;;;;;12.04;73.58;99943.25;102859;1312;138260;-74
2022/11/12 11:20:32;;;;;;;19.00;10.70;;;;;;;12.09;72.92;99936.61;103132;1305;25382;-74
2022/11/12 11:23:25;;;;;;;14.40;8.00;;;;;;;12.17;72.92;99940.43;102974;1313;138207;-74
2022/11/12 11:26:51;;;;;;;19.20;9.30;;;;;;;12.23;71.91;99938.52;103356;1313;23269;-74
2022/11/12 11:30:04;;;;;;;15.50;8.60;;;;;;;12.29;71.80;99934.36;103268;1312;138117;-74
2022/11/12 11:33:05;;;;;;;14.80;8.60;;;;;;;12.35;71.88;99932.77;102962;1310;22477;-76
2022/11/12 11:36:15;;;;;;;14.90;8.40;;;;;;;12.41;71.28;99928.02;103135;1312;137939;-74
2022/11/12 11:39:32;;;;;;;13.30;8.20;;;;;;;12.45;70.58;99925.88;102952;1312;22484;-72
2022/11/12 11:42:27;;;;;;;14.30;8.20;;;;;;;12.48;70.38;99927.30;102791;1302;137969;-74
2022/11/12 11:45:29;;;;;;;15.10;8.40;;;;;;;12.50;70.01;99924.75;102951;1306;22530;-74
2022/11/12 11:48:30;;;;;;;14.00;8.80;;;;;;;12.52;70.38;99921.16;102892;1308;137842;-74
2022/11/12 11:51:31;;;;;;;14.70;8.80;;;;;;;12.56;69.97;99920.35;103036;1305;22492;-72
2022/11/12 11:54:37;;;;;;;15.10;8.70;;;;;;;12.59;69.92;99916.63;103071;1313;138074;-73
2022/11/12 11:57:50;;;;;;;12.60;7.70;;;;;;;12.62;70.00;99911.92;103078;1312;22511;-73
2022/11/12 12:01:11;;;;;;;12.30;8.30;;;;;;;12.67;69.66;99907.64;102791;1312;22950;-73
2022/11/12 12:04:20;;;;;;;15.10;8.90;;;;;;;12.74;69.98;99903.29;103059;1305;22480;-73
2022/11/12 12:07:09;;;;;;;15.80;9.40;;;;;;;12.82;69.80;99903.47;102919;1312;24362;-73
2022/11/12 12:10:04;;;;;;;14.80;8.30;;;;;;;12.84;69.17;99906.20;102960;1313;24255;-75
2022/11/12 12:13:07;;;;;;;17.10;10.30;;;;;;;12.86;69.63;99902.38;103220;1313;24361;-75
2022/11/12 12:16:22;;;;;;;19.50;10.40;;;;;;;12.91;68.97;99896.61;103064;1307;22862;-75
2022/11/12 12:19:26;;;;;;;20.00;10.90;;;;;;;12.95;69.05;99895.86;103022;1303;22574;-75
2022/11/12 12:22:24;;;;;;;17.10;11.00;;;;;;;12.99;68.87;99896.80;102895;1306;24760;-73
2022/11/12 12:25:24;;;;;;;17.30;10.10;;;;;;;13.02;68.37;99891.80;102917;1307;22735;-73
2022/11/12 12:28:14;;;;;;;18.20;11.60;;;;;;;13.03;68.45;99894.32;103139;1288;22476;-73
2022/11/12 12:31:07;;;;;;;17.30;10.60;;;;;;;13.07;68.77;99895.20;103154;1304;23701;-73
2022/11/12 12:33:59;;;;;;;14.90;8.80;;;;;;;13.09;68.24;99892.65;103097;1304;25339;-75
2022/11/12 12:36:50;;;;;;;11.60;7.30;;;;;;;13.11;67.79;99892.72;102923;1292;138381;-72
2022/11/12 12:39:54;;;;;;;10.50;7.00;;;;;;;13.14;67.66;99893.66;102987;1311;22494;-73
2022/11/12 12:43:05;;;;;;;14.70;7.10;;;;;;;13.15;67.51;99894.91;102918;1312;138203;-73
2022/11/12 12:45:51;;;;;;;13.70;7.50;;;;;;;13.17;67.46;99895.05;103013;1311;22470;-75
2022/11/12 12:48:44;;;;;;;9.50;7.80;;;;;;;13.18;67.53;99892.89;102940;1305;137911;-75
2022/11/12 12:51:32;;;;;;;10.10;6.50;;;;;;;13.19;67.43;99892.00;102987;1304;22593;-74
2022/11/12 12:54:36;;;;;;;12.80;7.10;;;;;;;13.19;67.36;99892.55;103201;1300;137980;-74
2022/11/12 12:57:31;;;;;;;12.70;7.10;;;;;;;13.21;66.98;99889.74;102994;1312;106011;-75
2022/11/12 13:00:36;;;;;;;15.40;7.80;;;;;;;13.20;66.70;99890.44;102947;1310;138279;-72
2022/11/12 13:03:43;;;;;;;17.10;7.60;;;;;;;13.17;66.86;99887.39;102897;1312;22620;-74
2022/11/12 13:06:44;;;;;;;15.50;8.00;;;;;;;13.16;66.87;99880.33;102751;1312;138035;-73
2022/11/12 13:09:32;;;;;;;13.00;8.20;;;;;;;13.16;67.26;99881.14;102957;1312;22545;-73
2022/11/12 13:15:13;;;;;;;14.20;7.80;;;;;;;13.15;67.40;99882.20;102921;1311;22700;-73
2022/11/12 13:17:59;;;;;;;15.90;9.70;;;;;;;13.15;67.17;99885.86;102850;1306;139400;-76
2022/11/12 13:21:20;;;;;;;14.90;8.60;;;;;;;13.11;66.92;99886.73;102939;1308;25355;-75
2022/11/12 13:24:10;;;;;;;16.30;9.20;;;;;;;13.07;67.12;99887.29;102823;1312;138055;-75
2022/11/12 13:27:00;;;;;;;19.10;10.30;;;;;;;13.05;67.38;99884.80;102843;1310;22625;-74
2022/11/12 13:29:46;;;;;;;17.10;9.70;;;;;;;13.03;67.35;99883.80;102790;1296;138191;-74
2022/11/12 13:32:41;;;;;;;20.10;9.80;;;;;;;12.99;67.36;99883.04;102871;1313;22863;-73
2022/11/12 13:35:29;;;;;;;14.40;10.30;;;;;;;12.95;67.20;99882.73;102805;1313;137980;-73
2022/11/12 13:38:15;;;;;;;17.10;10.20;;;;;;;12.91;67.47;99888.08;102933;1302;22561;-73
2022/11/12 13:41:14;;;;;;;18.00;9.60;;;;;;;12.88;67.56;99887.98;102736;1312;138538;-74